sensor_id;sensor_type;location;lat;lon;timestamp;pressure;altitude;pressure_sealevel;temperature;humidity
9307;BME280;4691;47.612;7.610;2023-01-08T00:01:17;98001.16;;;5.46;100.00
9307;BME280;4691;47.612;7.610;2023-01-08T00:03:43;97987.06;;;5.45;100.00
9307;BME280;4691;47.612;7.610;2023-01-08T00:06:11;97974.31;;;5.51;100.00
9307;BME280;4691;47.612;7.610;2023-01-08T00:08:37;97957.13;;;5.56;100.00
9307;BME280;4691;47.612;7.610;2023-01-08T00:11:03;97973.31;;;5.64;100.00
9307;BME280;4691;47.612;7.610;2023-01-08T00:13:28;97983.28;;;5.74;100.00
9307;BME280;4691;47.612;7.610;2023-01-08T00:15:54;97987.19;;;5.94;100.00
9307;BME280;4691;47.612;7.610;2023-01-08T00:18:19;98012.47;;;6.23;100.00
9307;BME280;4691;47.612;7.610;2023-01-08T00:20:45;98047.38;;;6.30;100.00
9307;BME280;4691;47.612;7.610;2023-01-08T00:23:12;98056.97;;;6.20;100.00
9307;BME280;4691;47.612;7.610;2023-01-08T00:25:37;98070.34;;;6.18;100.00
9307;BME280;4691;47.612;7.610;2023-01-08T00:28:02;98069.44;;;6.06;100.00
9307;BME280;4691;47.612;7.610;2023-01-08T00:30:28;98058.06;;;6.04;100.00
9307;BME280;4691;47.612;7.610;2023-01-08T00:32:53;98058.50;;;5.98;100.00
9307;BME280;4691;47.612;7.610;2023-01-08T00:35:19;98047.88;;;5.98;100.00
9307;BME280;4691;47.612;7.610;2023-01-08T00:37:44;98030.69;;;5.91;100.00
9307;BME280;4691;47.612;7.610;2023-01-08T00:40:09;98031.97;;;5.85;100.00
9307;BME280;4691;47.612;7.610;2023-01-08T00:42:35;98022.41;;;5.83;100.00
9307;BME280;4691;47.612;7.610;2023-01-08T00:45:00;98015.41;;;5.82;100.00
9307;BME280;4691;47.612;7.610;2023-01-08T00:47:25;98018.59;;;5.87;100.00
9307;BME280;4691;47.612;7.610;2023-01-08T00:49:50;98011.59;;;5.86;100.00
9307;BME280;4691;47.612;7.610;2023-01-08T00:52:16;98019.88;;;5.94;100.00
9307;BME280;4691;47.612;7.610;2023-01-08T00:54:41;98021.75;;;5.92;100.00
9307;BME280;4691;47.612;7.610;2023-01-08T00:57:06;98033.03;;;5.83;100.00
9307;BME280;4691;47.612;7.610;2023-01-08T00:59:32;98020.09;;;5.78;100.00
9307;BME280;4691;47.612;7.610;2023-01-08T01:01:57;98013.00;;;5.79;100.00
9307;BME280;4691;47.612;7.610;2023-01-08T01:04:24;98001.34;;;5.68;100.00
9307;BME280;4691;47.612;7.610;2023-01-08T01:06:50;97999.84;;;5.64;100.00
9307;BME280;4691;47.612;7.610;2023-01-08T01:09:15;97982.88;;;5.67;100.00
9307;BME280;4691;47.612;7.610;2023-01-08T01:11:41;97972.38;;;5.65;100.00
9307;BME280;4691;47.612;7.610;2023-01-08T01:14:06;97956.88;;;5.59;100.00
9307;BME280;4691;47.612;7.610;2023-01-08T01:16:31;97945.13;;;5.63;100.00
9307;BME280;4691;47.612;7.610;2023-01-08T01:18:57;97928.97;;;5.66;100.00
9307;BME280;4691;47.612;7.610;2023-01-08T01:21:26;97920.06;;;5.67;100.00
9307;BME280;4691;47.612;7.610;2023-01-08T01:23:54;97910.19;;;5.70;100.00
9307;BME280;4691;47.612;7.610;2023-01-08T01:26:20;97896.09;;;5.69;100.00
9307;BME280;4691;47.612;7.610;2023-01-08T01:28:48;97894.28;;;5.70;100.00
9307;BME280;4691;47.612;7.610;2023-01-08T01:31:14;97888.97;;;5.70;100.00
9307;BME280;4691;47.612;7.610;2023-01-08T01:33:40;97884.41;;;5.72;100.00
9307;BME280;4691;47.612;7.610;2023-01-08T01:36:06;97877.41;;;5.71;100.00
9307;BME280;4691;47.612;7.610;2023-01-08T01:38:31;97877.28;;;5.72;100.00
9307;BME280;4691;47.612;7.610;2023-01-08T01:40:57;97872.38;;;5.79;100.00
9307;BME280;4691;47.612;7.610;2023-01-08T01:43:42;97867.81;;;5.81;100.00
9307;BME280;4691;47.612;7.610;2023-01-08T01:46:32;97880.84;;;5.84;100.00
9307;BME280;4691;47.612;7.610;2023-01-08T01:49:00;97883.16;;;6.01;100.00
9307;BME280;4691;47.612;7.610;2023-01-08T01:51:30;97911.47;;;6.25;100.00
9307;BME280;4691;47.612;7.610;2023-01-08T01:53:57;97921.94;;;6.50;100.00
9307;BME280;4691;47.612;7.610;2023-01-08T01:56:23;97945.41;;;6.68;100.00
9307;BME280;4691;47.612;7.610;2023-01-08T01:58:49;97973.59;;;6.82;100.00
9307;BME280;4691;47.612;7.610;2023-01-08T02:01:14;97990.63;;;6.79;100.00
9307;BME280;4691;47.612;7.610;2023-01-08T02:03:39;97997.16;;;6.86;100.00
9307;BME280;4691;47.612;7.610;2023-01-08T02:11:50;98015.72;;;6.75;100.00
9307;BME280;4691;47.612;7.610;2023-01-08T02:17:15;98010.94;;;6.56;100.00
9307;BME280;4691;47.612;7.610;2023-01-08T02:19:52;98005.28;;;6.37;100.00
9307;BME280;4691;47.612;7.610;2023-01-08T02:22:40;97997.19;;;6.27;100.00
9307;BME280;4691;47.612;7.610;2023-01-08T02:27:47;97980.59;;;5.99;100.00
9307;BME280;4691;47.612;7.610;2023-01-08T02:30:16;97973.03;;;5.93;100.00
9307;BME280;4691;47.612;7.610;2023-01-08T02:32:41;97970.38;;;5.93;100.00
9307;BME280;4691;47.612;7.610;2023-01-08T02:35:09;97966.88;;;6.05;100.00
9307;BME280;4691;47.612;7.610;2023-01-08T02:37:35;97948.25;;;5.94;100.00
9307;BME280;4691;47.612;7.610;2023-01-08T02:46:01;97926.88;;;5.96;100.00
9307;BME280;4691;47.612;7.610;2023-01-08T02:48:38;97908.44;;;5.94;100.00
9307;BME280;4691;47.612;7.610;2023-01-08T02:51:14;97908.44;;;5.94;100.00
9307;BME280;4691;47.612;7.610;2023-01-08T02:53:44;97899.94;;;5.89;100.00
9307;BME280;4691;47.612;7.610;2023-01-08T02:56:14;97882.78;;;5.82;100.00
9307;BME280;4691;47.612;7.610;2023-01-08T02:58:41;97888.41;;;5.77;100.00
9307;BME280;4691;47.612;7.610;2023-01-08T03:01:10;97866.81;;;5.71;100.00
9307;BME280;4691;47.612;7.610;2023-01-08T03:03:38;97846.28;;;5.73;100.00
9307;BME280;4691;47.612;7.610;2023-01-08T03:06:08;97825.06;;;5.73;100.00
9307;BME280;4691;47.612;7.610;2023-01-08T03:08:37;97809.91;;;5.75;100.00
9307;BME280;4691;47.612;7.610;2023-01-08T03:11:06;97750.59;;;5.76;100.00
9307;BME280;4691;47.612;7.610;2023-01-08T03:19:35;97569.00;;;5.68;100.00
9307;BME280;4691;47.612;7.610;2023-01-08T03:22:05;97552.84;;;5.72;100.00
9307;BME280;4691;47.612;7.610;2023-01-08T03:24:36;97531.38;;;5.75;100.00
9307;BME280;4691;47.612;7.610;2023-01-08T03:27:04;97526.09;;;5.75;100.00
9307;BME280;4691;47.612;7.610;2023-01-08T03:29:31;97515.22;;;5.78;100.00
9307;BME280;4691;47.612;7.610;2023-01-08T03:32:01;97498.34;;;5.90;100.00
9307;BME280;4691;47.612;7.610;2023-01-08T03:34:29;97499.06;;;5.92;100.00
9307;BME280;4691;47.612;7.610;2023-01-08T03:36:57;97508.94;;;5.90;100.00
9307;BME280;4691;47.612;7.610;2023-01-08T03:39:29;97510.66;;;5.91;100.00
9307;BME280;4691;47.612;7.610;2023-01-08T03:41:57;97541.28;;;5.95;100.00
9307;BME280;4691;47.612;7.610;2023-01-08T03:44:24;97542.63;;;6.01;100.00
9307;BME280;4691;47.612;7.610;2023-01-08T03:46:51;97586.63;;;6.03;100.00
9307;BME280;4691;47.612;7.610;2023-01-08T03:49:19;97618.88;;;5.99;100.00
9307;BME280;4691;47.612;7.610;2023-01-08T03:51:47;97671.63;;;5.90;100.00
9307;BME280;4691;47.612;7.610;2023-01-08T03:54:17;97701.22;;;5.97;100.00
9307;BME280;4691;47.612;7.610;2023-01-08T03:56:44;97716.06;;;6.00;100.00
9307;BME280;4691;47.612;7.610;2023-01-08T03:59:10;97739.78;;;5.90;100.00
9307;BME280;4691;47.612;7.610;2023-01-08T04:01:36;97749.31;;;5.93;100.00
9307;BME280;4691;47.612;7.610;2023-01-08T04:04:01;97763.66;;;5.90;100.00
9307;BME280;4691;47.612;7.610;2023-01-08T04:06:27;97765.06;;;5.83;100.00
9307;BME280;4691;47.612;7.610;2023-01-08T04:08:52;97805.59;;;5.85;100.00
9307;BME280;4691;47.612;7.610;2023-01-08T04:11:19;97850.69;;;5.85;100.00
9307;BME280;4691;47.612;7.610;2023-01-08T04:13:44;97827.09;;;5.93;100.00
9307;BME280;4691;47.612;7.610;2023-01-08T04:16:09;97805.25;;;5.89;100.00
9307;BME280;4691;47.612;7.610;2023-01-08T04:18:35;97799.13;;;5.89;100.00
9307;BME280;4691;47.612;7.610;2023-01-08T04:21:00;97788.06;;;5.95;100.00
9307;BME280;4691;47.612;7.610;2023-01-08T04:23:25;97764.91;;;5.97;100.00
9307;BME280;4691;47.612;7.610;2023-01-08T04:25:51;97755.97;;;5.98;100.00
9307;BME280;4691;47.612;7.610;2023-01-08T04:28:17;97737.19;;;6.01;100.00
9307;BME280;4691;47.612;7.610;2023-01-08T04:30:42;97721.97;;;6.03;100.00
9307;BME280;4691;47.612;7.610;2023-01-08T04:33:08;97697.16;;;6.04;100.00
9307;BME280;4691;47.612;7.610;2023-01-08T04:35:33;97696.91;;;6.07;100.00
9307;BME280;4691;47.612;7.610;2023-01-08T04:37:58;97675.19;;;6.14;100.00
9307;BME280;4691;47.612;7.610;2023-01-08T04:40:23;97670.59;;;6.16;100.00
9307;BME280;4691;47.612;7.610;2023-01-08T04:42:49;97654.81;;;6.14;100.00
9307;BME280;4691;47.612;7.610;2023-01-08T04:45:14;97625.13;;;6.09;100.00
9307;BME280;4691;47.612;7.610;2023-01-08T04:47:39;97611.63;;;6.12;100.00
9307;BME280;4691;47.612;7.610;2023-01-08T04:50:05;97611.97;;;6.19;100.00
9307;BME280;4691;47.612;7.610;2023-01-08T04:52:30;97599.31;;;6.22;100.00
9307;BME280;4691;47.612;7.610;2023-01-08T04:54:55;97597.97;;;6.28;100.00
9307;BME280;4691;47.612;7.610;2023-01-08T04:57:21;97583.25;;;6.35;100.00
9307;BME280;4691;47.612;7.610;2023-01-08T04:59:46;97590.47;;;6.33;100.00
9307;BME280;4691;47.612;7.610;2023-01-08T05:02:12;97577.94;;;6.35;100.00
9307;BME280;4691;47.612;7.610;2023-01-08T05:04:38;97560.06;;;6.37;100.00
9307;BME280;4691;47.612;7.610;2023-01-08T05:07:03;97546.03;;;6.46;100.00
9307;BME280;4691;47.612;7.610;2023-01-08T05:09:29;97533.84;;;6.44;100.00
9307;BME280;4691;47.612;7.610;2023-01-08T05:11:54;97529.16;;;6.47;100.00
9307;BME280;4691;47.612;7.610;2023-01-08T05:14:19;97525.78;;;6.45;100.00
9307;BME280;4691;47.612;7.610;2023-01-08T05:16:45;97524.06;;;6.44;100.00
9307;BME280;4691;47.612;7.610;2023-01-08T05:19:10;97517.66;;;6.47;100.00
9307;BME280;4691;47.612;7.610;2023-01-08T05:21:35;97517.91;;;6.55;100.00
9307;BME280;4691;47.612;7.610;2023-01-08T05:24:01;97511.63;;;6.56;100.00
9307;BME280;4691;47.612;7.610;2023-01-08T05:26:26;97527.28;;;6.59;100.00
9307;BME280;4691;47.612;7.610;2023-01-08T05:28:52;97538.97;;;6.68;100.00
9307;BME280;4691;47.612;7.610;2023-01-08T05:31:17;97533.88;;;6.76;100.00
9307;BME280;4691;47.612;7.610;2023-01-08T05:33:43;97520.19;;;6.81;100.00
9307;BME280;4691;47.612;7.610;2023-01-08T05:36:10;97516.91;;;6.88;100.00
9307;BME280;4691;47.612;7.610;2023-01-08T05:38:36;97508.53;;;6.93;100.00
9307;BME280;4691;47.612;7.610;2023-01-08T05:41:02;97500.19;;;6.97;100.00
9307;BME280;4691;47.612;7.610;2023-01-08T05:43:28;97494.09;;;7.07;100.00
9307;BME280;4691;47.612;7.610;2023-01-08T05:45:53;97476.53;;;7.15;100.00
9307;BME280;4691;47.612;7.610;2023-01-08T05:48:19;97456.72;;;7.29;100.00
9307;BME280;4691;47.612;7.610;2023-01-08T05:50:44;97449.59;;;7.30;100.00
9307;BME280;4691;47.612;7.610;2023-01-08T05:53:09;97445.56;;;7.35;100.00
9307;BME280;4691;47.612;7.610;2023-01-08T05:55:35;97448.22;;;7.35;100.00
9307;BME280;4691;47.612;7.610;2023-01-08T05:58:01;97428.94;;;7.43;100.00
9307;BME280;4691;47.612;7.610;2023-01-08T06:00:27;97432.44;;;7.44;100.00
9307;BME280;4691;47.612;7.610;2023-01-08T06:02:53;97441.00;;;7.47;100.00
9307;BME280;4691;47.612;7.610;2023-01-08T06:05:18;97444.09;;;7.52;100.00
9307;BME280;4691;47.612;7.610;2023-01-08T06:07:44;97438.81;;;7.62;100.00
9307;BME280;4691;47.612;7.610;2023-01-08T06:10:09;97496.81;;;7.68;100.00
9307;BME280;4691;47.612;7.610;2023-01-08T06:12:34;97510.69;;;7.72;100.00
9307;BME280;4691;47.612;7.610;2023-01-08T06:14:59;97536.72;;;7.68;100.00
9307;BME280;4691;47.612;7.610;2023-01-08T06:17:25;97520.31;;;7.63;100.00
9307;BME280;4691;47.612;7.610;2023-01-08T06:19:50;97508.31;;;7.69;100.00
9307;BME280;4691;47.612;7.610;2023-01-08T06:22:15;97505.91;;;7.66;100.00
9307;BME280;4691;47.612;7.610;2023-01-08T06:24:40;97515.97;;;7.62;100.00
9307;BME280;4691;47.612;7.610;2023-01-08T06:27:06;97507.41;;;7.58;100.00
9307;BME280;4691;47.612;7.610;2023-01-08T06:29:31;97495.50;;;7.53;100.00
9307;BME280;4691;47.612;7.610;2023-01-08T06:31:56;97513.13;;;7.54;100.00
9307;BME280;4691;47.612;7.610;2023-01-08T06:34:22;97508.19;;;7.49;100.00
9307;BME280;4691;47.612;7.610;2023-01-08T06:36:47;97507.25;;;7.50;100.00
9307;BME280;4691;47.612;7.610;2023-01-08T06:39:12;97511.69;;;7.50;100.00
9307;BME280;4691;47.612;7.610;2023-01-08T06:41:37;97506.78;;;7.45;100.00
9307;BME280;4691;47.612;7.610;2023-01-08T06:44:03;97502.31;;;7.46;100.00
9307;BME280;4691;47.612;7.610;2023-01-08T06:46:29;97493.78;;;7.52;100.00
9307;BME280;4691;47.612;7.610;2023-01-08T06:48:54;97488.63;;;7.60;100.00
9307;BME280;4691;47.612;7.610;2023-01-08T06:51:19;97509.19;;;7.89;100.00
9307;BME280;4691;47.612;7.610;2023-01-08T06:53:47;97532.47;;;7.87;100.00
9307;BME280;4691;47.612;7.610;2023-01-08T06:56:12;97552.06;;;7.85;100.00
9307;BME280;4691;47.612;7.610;2023-01-08T06:58:38;97569.56;;;7.78;100.00
9307;BME280;4691;47.612;7.610;2023-01-08T07:01:04;97556.09;;;7.80;100.00
9307;BME280;4691;47.612;7.610;2023-01-08T07:03:29;97567.91;;;7.87;100.00
9307;BME280;4691;47.612;7.610;2023-01-08T07:05:55;97576.28;;;7.82;100.00
9307;BME280;4691;47.612;7.610;2023-01-08T07:08:21;97584.97;;;7.84;100.00
9307;BME280;4691;47.612;7.610;2023-01-08T07:10:47;97575.31;;;7.83;100.00
9307;BME280;4691;47.612;7.610;2023-01-08T07:13:12;97586.81;;;7.84;100.00
9307;BME280;4691;47.612;7.610;2023-01-08T07:15:38;97577.97;;;7.83;100.00
9307;BME280;4691;47.612;7.610;2023-01-08T07:18:07;97565.06;;;7.79;100.00
9307;BME280;4691;47.612;7.610;2023-01-08T07:20:34;97557.19;;;7.77;100.00
9307;BME280;4691;47.612;7.610;2023-01-08T07:23:08;97546.03;;;7.83;100.00
9307;BME280;4691;47.612;7.610;2023-01-08T07:25:34;97528.53;;;7.81;100.00
9307;BME280;4691;47.612;7.610;2023-01-08T07:27:59;97529.09;;;7.84;100.00
9307;BME280;4691;47.612;7.610;2023-01-08T07:30:25;97527.81;;;7.89;100.00
9307;BME280;4691;47.612;7.610;2023-01-08T07:32:51;97522.78;;;7.85;100.00
9307;BME280;4691;47.612;7.610;2023-01-08T07:35:16;97519.28;;;7.85;100.00
9307;BME280;4691;47.612;7.610;2023-01-08T07:37:42;97514.09;;;7.83;100.00
9307;BME280;4691;47.612;7.610;2023-01-08T07:40:09;97508.06;;;7.81;100.00
9307;BME280;4691;47.612;7.610;2023-01-08T07:42:34;97508.06;;;7.81;100.00
9307;BME280;4691;47.612;7.610;2023-01-08T07:45:00;97505.84;;;7.87;100.00
9307;BME280;4691;47.612;7.610;2023-01-08T07:47:25;97503.88;;;7.89;100.00
9307;BME280;4691;47.612;7.610;2023-01-08T07:49:50;97504.31;;;7.84;100.00
9307;BME280;4691;47.612;7.610;2023-01-08T07:52:15;97513.84;;;7.87;100.00
9307;BME280;4691;47.612;7.610;2023-01-08T07:54:41;97501.50;;;7.85;100.00
9307;BME280;4691;47.612;7.610;2023-01-08T07:57:06;97500.66;;;7.85;100.00
9307;BME280;4691;47.612;7.610;2023-01-08T07:59:31;97499.41;;;7.89;100.00
9307;BME280;4691;47.612;7.610;2023-01-08T08:01:56;97494.81;;;8.01;100.00
9307;BME280;4691;47.612;7.610;2023-01-08T08:04:22;97507.69;;;7.96;100.00
9307;BME280;4691;47.612;7.610;2023-01-08T08:06:48;97509.38;;;7.97;100.00
9307;BME280;4691;47.612;7.610;2023-01-08T08:09:13;97507.69;;;7.96;100.00
9307;BME280;4691;47.612;7.610;2023-01-08T08:11:39;97516.94;;;8.01;100.00
9307;BME280;4691;47.612;7.610;2023-01-08T08:14:04;97526.47;;;8.04;100.00
9307;BME280;4691;47.612;7.610;2023-01-08T08:16:29;97526.47;;;8.04;100.00
9307;BME280;4691;47.612;7.610;2023-01-08T08:18:57;97518.50;;;8.04;100.00
9307;BME280;4691;47.612;7.610;2023-01-08T08:21:22;97522.28;;;8.01;100.00
9307;BME280;4691;47.612;7.610;2023-01-08T08:23:47;97541.66;;;8.13;100.00
9307;BME280;4691;47.612;7.610;2023-01-08T08:26:13;97571.22;;;8.10;100.00
9307;BME280;4691;47.612;7.610;2023-01-08T08:28:38;97573.28;;;8.06;100.00
9307;BME280;4691;47.612;7.610;2023-01-08T08:31:03;97601.25;;;7.91;100.00
9307;BME280;4691;47.612;7.610;2023-01-08T08:33:29;97599.97;;;7.85;100.00
9307;BME280;4691;47.612;7.610;2023-01-08T08:35:54;97599.78;;;7.77;100.00
9307;BME280;4691;47.612;7.610;2023-01-08T08:38:19;97581.97;;;7.68;100.00
9307;BME280;4691;47.612;7.610;2023-01-08T08:40:45;97583.53;;;7.71;100.00
9307;BME280;4691;47.612;7.610;2023-01-08T08:43:10;97573.00;;;7.69;100.00
9307;BME280;4691;47.612;7.610;2023-01-08T08:45:35;97561.63;;;7.67;100.00
9307;BME280;4691;47.612;7.610;2023-01-08T08:48:04;97547.94;;;7.72;100.00
9307;BME280;4691;47.612;7.610;2023-01-08T08:50:30;97541.78;;;7.71;100.00
9307;BME280;4691;47.612;7.610;2023-01-08T08:52:59;97528.53;;;7.60;100.00
9307;BME280;4691;47.612;7.610;2023-01-08T08:55:25;97519.88;;;7.58;100.00
9307;BME280;4691;47.612;7.610;2023-01-08T08:57:51;97518.78;;;7.60;100.00
9307;BME280;4691;47.612;7.610;2023-01-08T09:00:17;97503.75;;;7.59;100.00
9307;BME280;4691;47.612;7.610;2023-01-08T09:02:42;97489.25;;;7.63;100.00
9307;BME280;4691;47.612;7.610;2023-01-08T09:05:08;97487.13;;;7.67;100.00
9307;BME280;4691;47.612;7.610;2023-01-08T09:07:33;97479.75;;;7.71;100.00
9307;BME280;4691;47.612;7.610;2023-01-08T09:09:59;97453.03;;;7.82;100.00
9307;BME280;4691;47.612;7.610;2023-01-08T09:12:24;97446.88;;;7.81;100.00
9307;BME280;4691;47.612;7.610;2023-01-08T09:14:49;97434.88;;;7.97;100.00
9307;BME280;4691;47.612;7.610;2023-01-08T09:17:16;97430.94;;;8.01;100.00
9307;BME280;4691;47.612;7.610;2023-01-08T09:19:41;97430.66;;;8.04;100.00
9307;BME280;4691;47.612;7.610;2023-01-08T09:22:06;97435.72;;;8.07;100.00
9307;BME280;4691;47.612;7.610;2023-01-08T09:24:32;97436.16;;;8.12;100.00
9307;BME280;4691;47.612;7.610;2023-01-08T09:26:57;97440.06;;;8.18;100.00
9307;BME280;4691;47.612;7.610;2023-01-08T09:29:23;97441.91;;;8.17;100.00
9307;BME280;4691;47.612;7.610;2023-01-08T09:31:48;97439.91;;;8.19;100.00
9307;BME280;4691;47.612;7.610;2023-01-08T09:34:14;97433.47;;;8.22;100.00
9307;BME280;4691;47.612;7.610;2023-01-08T09:36:39;97426.91;;;8.26;100.00
9307;BME280;4691;47.612;7.610;2023-01-08T09:39:04;97433.50;;;8.32;100.00
9307;BME280;4691;47.612;7.610;2023-01-08T09:41:32;97434.06;;;8.35;100.00
9307;BME280;4691;47.612;7.610;2023-01-08T09:44:01;97436.31;;;8.40;100.00
9307;BME280;4691;47.612;7.610;2023-01-08T09:46:28;97443.91;;;8.44;100.00
9307;BME280;4691;47.612;7.610;2023-01-08T09:49:00;97451.34;;;8.41;100.00
9307;BME280;4691;47.612;7.610;2023-01-08T09:51:36;97446.97;;;8.40;100.00
9307;BME280;4691;47.612;7.610;2023-01-08T09:54:02;97452.06;;;8.43;100.00
9307;BME280;4691;47.612;7.610;2023-01-08T09:56:29;97448.41;;;8.44;100.00
9307;BME280;4691;47.612;7.610;2023-01-08T09:58:58;97450.06;;;8.45;100.00
9307;BME280;4691;47.612;7.610;2023-01-08T10:01:29;97447.28;;;8.46;100.00
9307;BME280;4691;47.612;7.610;2023-01-08T10:04:21;97455.56;;;8.53;100.00
9307;BME280;4691;47.612;7.610;2023-01-08T10:06:53;97464.38;;;8.54;100.00
9307;BME280;4691;47.612;7.610;2023-01-08T10:09:24;97489.91;;;8.56;100.00
9307;BME280;4691;47.612;7.610;2023-01-08T10:11:51;97509.41;;;8.57;100.00
9307;BME280;4691;47.612;7.610;2023-01-08T10:14:24;97528.03;;;8.57;100.00
9307;BME280;4691;47.612;7.610;2023-01-08T10:16:55;97537.59;;;8.59;100.00
9307;BME280;4691;47.612;7.610;2023-01-08T10:19:22;97540.38;;;8.58;100.00
9307;BME280;4691;47.612;7.610;2023-01-08T10:21:47;97539.53;;;8.57;100.00
9307;BME280;4691;47.612;7.610;2023-01-08T10:24:13;97545.16;;;8.54;100.00
9307;BME280;4691;47.612;7.610;2023-01-08T10:26:38;97536.16;;;8.55;100.00
9307;BME280;4691;47.612;7.610;2023-01-08T10:29:16;97523.03;;;8.63;100.00
9307;BME280;4691;47.612;7.610;2023-01-08T10:31:55;97511.91;;;8.68;100.00
9307;BME280;4691;47.612;7.610;2023-01-08T10:34:41;97504.78;;;8.68;100.00
9307;BME280;4691;47.612;7.610;2023-01-08T10:37:25;97498.06;;;8.74;100.00
9307;BME280;4691;47.612;7.610;2023-01-08T10:39:53;97499.59;;;8.77;100.00
9307;BME280;4691;47.612;7.610;2023-01-08T10:42:20;97493.97;;;8.80;100.00
9307;BME280;4691;47.612;7.610;2023-01-08T10:44:59;97488.94;;;8.86;100.00
9307;BME280;4691;47.612;7.610;2023-01-08T10:47:29;97483.44;;;8.88;100.00
9307;BME280;4691;47.612;7.610;2023-01-08T10:49:56;97474.75;;;8.86;100.00
9307;BME280;4691;47.612;7.610;2023-01-08T10:54:49;97446.13;;;8.88;100.00
9307;BME280;4691;47.612;7.610;2023-01-08T10:57:20;97440.38;;;8.83;100.00
9307;BME280;4691;47.612;7.610;2023-01-08T10:59:46;97452.34;;;8.79;100.00
9307;BME280;4691;47.612;7.610;2023-01-08T11:02:20;97461.59;;;8.75;100.00
9307;BME280;4691;47.612;7.610;2023-01-08T11:04:50;97474.19;;;8.72;100.00
9307;BME280;4691;47.612;7.610;2023-01-08T11:07:19;97468.56;;;8.76;100.00
9307;BME280;4691;47.612;7.610;2023-01-08T11:09:47;97475.47;;;8.68;100.00
9307;BME280;4691;47.612;7.610;2023-01-08T11:12:37;97470.56;;;8.64;100.00
9307;BME280;4691;47.612;7.610;2023-01-08T11:15:27;97479.53;;;8.63;100.00
9307;BME280;4691;47.612;7.610;2023-01-08T11:17:51;97488.38;;;8.54;100.00
9307;BME280;4691;47.612;7.610;2023-01-08T11:20:27;97497.47;;;8.51;100.00
9307;BME280;4691;47.612;7.610;2023-01-08T11:23:14;97480.22;;;8.55;100.00
9307;BME280;4691;47.612;7.610;2023-01-08T11:25:42;97464.94;;;8.57;100.00
9307;BME280;4691;47.612;7.610;2023-01-08T11:28:14;97470.00;;;8.50;100.00
9307;BME280;4691;47.612;7.610;2023-01-08T11:30:43;97462.28;;;8.57;100.00
9307;BME280;4691;47.612;7.610;2023-01-08T11:33:17;97450.22;;;8.53;100.00
9307;BME280;4691;47.612;7.610;2023-01-08T11:35:52;97450.66;;;8.58;100.00
9307;BME280;4691;47.612;7.610;2023-01-08T11:38:18;97443.34;;;8.60;100.00
9307;BME280;4691;47.612;7.610;2023-01-08T11:40:51;97446.72;;;8.62;100.00
9307;BME280;4691;47.612;7.610;2023-01-08T11:46:23;97448.25;;;8.75;100.00
9307;BME280;4691;47.612;7.610;2023-01-08T12:07:59;97459.47;;;8.78;100.00
9307;BME280;4691;47.612;7.610;2023-01-08T12:10:37;97454.00;;;8.80;100.00
9307;BME280;4691;47.612;7.610;2023-01-08T12:21:37;97445.44;;;8.86;100.00
9307;BME280;4691;47.612;7.610;2023-01-08T12:29:57;97445.00;;;9.00;100.00
9307;BME280;4691;47.612;7.610;2023-01-08T12:32:48;97440.38;;;9.02;100.00
9307;BME280;4691;47.612;7.610;2023-01-08T12:35:20;97452.28;;;8.98;100.00
9307;BME280;4691;47.612;7.610;2023-01-08T12:37:49;97451.75;;;9.04;100.00
9307;BME280;4691;47.612;7.610;2023-01-08T12:40:32;97459.03;;;9.02;100.00
9307;BME280;4691;47.612;7.610;2023-01-08T12:43:00;97470.00;;;8.99;100.00
9307;BME280;4691;47.612;7.610;2023-01-08T12:45:32;97467.31;;;8.99;100.00
9307;BME280;4691;47.612;7.610;2023-01-08T12:48:05;97456.78;;;9.07;100.00
9307;BME280;4691;47.612;7.610;2023-01-08T12:50:43;97455.38;;;9.03;100.00
9307;BME280;4691;47.612;7.610;2023-01-08T12:53:17;97463.25;;;9.05;100.00
9307;BME280;4691;47.612;7.610;2023-01-08T12:56:39;97468.56;;;9.05;100.00
9307;BME280;4691;47.612;7.610;2023-01-08T12:59:26;97473.59;;;9.08;100.00
9307;BME280;4691;47.612;7.610;2023-01-08T13:01:58;97480.06;;;9.05;100.00
9307;BME280;4691;47.612;7.610;2023-01-08T13:04:26;97491.16;;;9.10;100.00
9307;BME280;4691;47.612;7.610;2023-01-08T13:07:03;97491.28;;;9.19;100.00
9307;BME280;4691;47.612;7.610;2023-01-08T13:09:29;97484.28;;;9.18;100.00
9307;BME280;4691;47.612;7.610;2023-01-08T13:11:57;97487.06;;;9.26;100.00
9307;BME280;4691;47.612;7.610;2023-01-08T13:14:23;97485.34;;;9.25;100.00
9307;BME280;4691;47.612;7.610;2023-01-08T13:17:07;97480.44;;;9.30;100.00
9307;BME280;4691;47.612;7.610;2023-01-08T13:19:42;97472.31;;;9.22;100.00
9307;BME280;4691;47.612;7.610;2023-01-08T13:22:35;97459.78;;;9.32;100.00
9307;BME280;4691;47.612;7.610;2023-01-08T13:27:43;97476.09;;;9.29;100.00
9307;BME280;4691;47.612;7.610;2023-01-08T13:30:40;97474.13;;;9.31;100.00
9307;BME280;4691;47.612;7.610;2023-01-08T13:38:41;97455.34;;;9.23;100.00
9307;BME280;4691;47.612;7.610;2023-01-08T13:41:23;97452.50;;;9.24;100.00
9307;BME280;4691;47.612;7.610;2023-01-08T13:43:55;97467.69;;;9.24;100.00
9307;BME280;4691;47.612;7.610;2023-01-08T13:46:22;97463.59;;;9.29;100.00
9307;BME280;4691;47.612;7.610;2023-01-08T13:49:08;97457.72;;;9.26;100.00
9307;BME280;4691;47.612;7.610;2023-01-08T13:56:37;97485.91;;;9.28;100.00
9307;BME280;4691;47.612;7.610;2023-01-08T13:59:04;97491.81;;;9.32;100.00
9307;BME280;4691;47.612;7.610;2023-01-08T14:01:30;97490.44;;;9.28;100.00
9307;BME280;4691;47.612;7.610;2023-01-08T14:03:55;97494.91;;;9.27;100.00
9307;BME280;4691;47.612;7.610;2023-01-08T14:06:23;97492.63;;;9.32;100.00
9307;BME280;4691;47.612;7.610;2023-01-08T14:11:24;97476.47;;;9.44;100.00
9307;BME280;4691;47.612;7.610;2023-01-08T14:13:52;97489.94;;;9.42;100.00
9307;BME280;4691;47.612;7.610;2023-01-08T14:16:18;97476.59;;;9.42;100.00
9307;BME280;4691;47.612;7.610;2023-01-08T14:18:45;97481.25;;;9.40;100.00
9307;BME280;4691;47.612;7.610;2023-01-08T14:21:14;97493.91;;;9.38;100.00
9307;BME280;4691;47.612;7.610;2023-01-08T14:23:46;97488.56;;;9.38;100.00
9307;BME280;4691;47.612;7.610;2023-01-08T14:26:31;97479.16;;;9.44;100.00
9307;BME280;4691;47.612;7.610;2023-01-08T14:28:59;97470.00;;;9.46;100.00
9307;BME280;4691;47.612;7.610;2023-01-08T14:31:26;97478.72;;;9.48;100.00
9307;BME280;4691;47.612;7.610;2023-01-08T14:33:54;97476.06;;;9.48;100.00
9307;BME280;4691;47.612;7.610;2023-01-08T14:36:20;97466.09;;;9.41;100.00
9307;BME280;4691;47.612;7.610;2023-01-08T14:38:46;97459.50;;;9.35;100.00
9307;BME280;4691;47.612;7.610;2023-01-08T14:41:21;97444.09;;;9.29;100.00
9307;BME280;4691;47.612;7.610;2023-01-08T14:44:12;97425.72;;;9.26;100.00
9307;BME280;4691;47.612;7.610;2023-01-08T14:46:38;97414.63;;;9.21;100.00